sensor_id;sensor_type;location;lat;lon;timestamp;P1;durP1;ratioP1;P2;durP2;ratioP2
38358;SDS011;42072;48.044;14.416;2023-06-24T00:01:45;5.20;;;3.00;;
38358;SDS011;42072;48.044;14.416;2023-06-24T00:04:12;7.05;;;3.67;;
38358;SDS011;42072;48.044;14.416;2023-06-24T00:06:41;5.72;;;3.03;;
38358;SDS011;42072;48.044;14.416;2023-06-24T00:09:08;4.43;;;3.30;;
38358;SDS011;42072;48.044;14.416;2023-06-24T00:11:35;4.20;;;3.53;;
38358;SDS011;42072;48.044;14.416;2023-06-24T00:14:02;3.20;;;2.90;;
38358;SDS011;42072;48.044;14.416;2023-06-24T00:16:30;3.15;;;2.78;;
38358;SDS011;42072;48.044;14.416;2023-06-24T00:18:57;3.35;;;2.97;;
38358;SDS011;42072;48.044;14.416;2023-06-24T00:21:25;4.13;;;3.15;;
38358;SDS011;42072;48.044;14.416;2023-06-24T00:23:57;3.97;;;3.10;;
38358;SDS011;42072;48.044;14.416;2023-06-24T00:26:25;3.70;;;3.10;;
38358;SDS011;42072;48.044;14.416;2023-06-24T00:28:52;2.60;;;2.40;;
38358;SDS011;42072;48.044;14.416;2023-06-24T00:31:19;4.47;;;2.88;;
38358;SDS011;42072;48.044;14.416;2023-06-24T00:33:47;2.30;;;2.05;;
38358;SDS011;42072;48.044;14.416;2023-06-24T00:36:16;3.72;;;2.70;;
38358;SDS011;42072;48.044;14.416;2023-06-24T00:38:43;2.92;;;2.40;;
38358;SDS011;42072;48.044;14.416;2023-06-24T00:41:10;3.25;;;2.25;;
38358;SDS011;42072;48.044;14.416;2023-06-24T00:43:37;2.20;;;1.92;;
38358;SDS011;42072;48.044;14.416;2023-06-24T00:46:05;2.25;;;1.90;;
38358;SDS011;42072;48.044;14.416;2023-06-24T00:48:32;2.58;;;2.17;;
38358;SDS011;42072;48.044;14.416;2023-06-24T00:51:00;2.53;;;2.17;;
38358;SDS011;42072;48.044;14.416;2023-06-24T00:53:27;2.85;;;1.80;;
38358;SDS011;42072;48.044;14.416;2023-06-24T00:55:54;2.55;;;2.10;;
38358;SDS011;42072;48.044;14.416;2023-06-24T00:58:31;2.35;;;1.98;;
38358;SDS011;42072;48.044;14.416;2023-06-24T01:01:01;2.03;;;1.75;;
38358;SDS011;42072;48.044;14.416;2023-06-24T01:03:28;2.80;;;2.05;;
38358;SDS011;42072;48.044;14.416;2023-06-24T01:05:57;3.90;;;2.10;;
38358;SDS011;42072;48.044;14.416;2023-06-24T01:08:24;1.92;;;1.73;;
38358;SDS011;42072;48.044;14.416;2023-06-24T01:10:52;2.85;;;1.88;;
38358;SDS011;42072;48.044;14.416;2023-06-24T01:13:19;2.50;;;1.80;;
38358;SDS011;42072;48.044;14.416;2023-06-24T01:15:47;2.03;;;1.73;;
38358;SDS011;42072;48.044;14.416;2023-06-24T01:20:51;2.22;;;1.70;;
38358;SDS011;42072;48.044;14.416;2023-06-24T01:34:15;2.88;;;1.77;;
38358;SDS011;42072;48.044;14.416;2023-06-24T01:37:13;3.05;;;1.60;;
38358;SDS011;42072;48.044;14.416;2023-06-24T01:39:47;2.13;;;1.63;;
38358;SDS011;42072;48.044;14.416;2023-06-24T01:42:19;2.17;;;1.80;;
38358;SDS011;42072;48.044;14.416;2023-06-24T01:44:48;1.77;;;1.52;;
38358;SDS011;42072;48.044;14.416;2023-06-24T01:47:18;1.77;;;1.50;;
38358;SDS011;42072;48.044;14.416;2023-06-24T01:49:50;1.45;;;1.35;;
38358;SDS011;42072;48.044;14.416;2023-06-24T01:52:21;1.70;;;1.60;;
38358;SDS011;42072;48.044;14.416;2023-06-24T01:54:50;1.52;;;1.42;;
38358;SDS011;42072;48.044;14.416;2023-06-24T01:57:19;2.05;;;1.80;;
38358;SDS011;42072;48.044;14.416;2023-06-24T01:59:47;1.67;;;1.58;;
38358;SDS011;42072;48.044;14.416;2023-06-24T02:02:15;2.85;;;1.55;;
38358;SDS011;42072;48.044;14.416;2023-06-24T02:04:50;1.95;;;1.70;;
38358;SDS011;42072;48.044;14.416;2023-06-24T02:07:19;2.28;;;1.63;;
38358;SDS011;42072;48.044;14.416;2023-06-24T02:09:48;2.10;;;1.90;;
38358;SDS011;42072;48.044;14.416;2023-06-24T02:12:17;2.10;;;1.90;;
38358;SDS011;42072;48.044;14.416;2023-06-24T02:14:46;2.55;;;2.00;;
38358;SDS011;42072;48.044;14.416;2023-06-24T02:17:15;2.30;;;1.92;;
38358;SDS011;42072;48.044;14.416;2023-06-24T02:19:44;2.63;;;2.20;;
38358;SDS011;42072;48.044;14.416;2023-06-24T02:22:12;3.08;;;2.58;;
38358;SDS011;42072;48.044;14.416;2023-06-24T02:24:39;3.22;;;2.40;;
38358;SDS011;42072;48.044;14.416;2023-06-24T02:27:08;2.42;;;2.22;;
38358;SDS011;42072;48.044;14.416;2023-06-24T02:29:38;3.28;;;2.28;;
38358;SDS011;42072;48.044;14.416;2023-06-24T02:32:06;3.08;;;2.72;;
38358;SDS011;42072;48.044;14.416;2023-06-24T02:34:35;3.33;;;3.00;;
38358;SDS011;42072;48.044;14.416;2023-06-24T02:37:03;3.25;;;2.53;;
38358;SDS011;42072;48.044;14.416;2023-06-24T02:39:30;4.90;;;2.72;;
38358;SDS011;42072;48.044;14.416;2023-06-24T02:41:57;3.40;;;3.10;;
38358;SDS011;42072;48.044;14.416;2023-06-24T02:44:24;3.40;;;3.10;;
38358;SDS011;42072;48.044;14.416;2023-06-24T02:46:51;3.67;;;3.00;;
38358;SDS011;42072;48.044;14.416;2023-06-24T02:49:20;4.20;;;3.35;;
38358;SDS011;42072;48.044;14.416;2023-06-24T02:51:48;3.40;;;3.10;;
38358;SDS011;42072;48.044;14.416;2023-06-24T02:54:15;6.53;;;3.90;;
38358;SDS011;42072;48.044;14.416;2023-06-24T02:56:42;4.50;;;3.67;;
38358;SDS011;42072;48.044;14.416;2023-06-24T02:59:11;4.80;;;3.78;;
38358;SDS011;42072;48.044;14.416;2023-06-24T03:01:38;4.20;;;3.80;;
38358;SDS011;42072;48.044;14.416;2023-06-24T03:04:11;5.25;;;3.97;;
38358;SDS011;42072;48.044;14.416;2023-06-24T03:06:39;4.22;;;3.60;;
38358;SDS011;42072;48.044;14.416;2023-06-24T03:09:07;4.25;;;3.85;;
38358;SDS011;42072;48.044;14.416;2023-06-24T03:11:43;4.43;;;3.85;;
38358;SDS011;42072;48.044;14.416;2023-06-24T03:14:11;5.75;;;4.03;;
38358;SDS011;42072;48.044;14.416;2023-06-24T03:16:39;4.53;;;4.00;;
38358;SDS011;42072;48.044;14.416;2023-06-24T03:19:07;4.40;;;4.00;;
38358;SDS011;42072;48.044;14.416;2023-06-24T03:21:34;4.80;;;4.30;;
38358;SDS011;42072;48.044;14.416;2023-06-24T03:24:01;5.38;;;4.20;;
38358;SDS011;42072;48.044;14.416;2023-06-24T03:26:32;4.57;;;4.03;;
38358;SDS011;42072;48.044;14.416;2023-06-24T03:29:04;9.18;;;3.63;;
38358;SDS011;42072;48.044;14.416;2023-06-24T03:31:33;4.13;;;3.72;;
38358;SDS011;42072;48.044;14.416;2023-06-24T03:34:00;3.90;;;3.47;;
38358;SDS011;42072;48.044;14.416;2023-06-24T03:36:28;4.00;;;3.60;;
38358;SDS011;42072;48.044;14.416;2023-06-24T03:38:55;4.90;;;3.20;;
38358;SDS011;42072;48.044;14.416;2023-06-24T03:41:22;5.07;;;3.50;;
38358;SDS011;42072;48.044;14.416;2023-06-24T03:43:49;4.13;;;3.53;;
38358;SDS011;42072;48.044;14.416;2023-06-24T03:46:16;3.20;;;2.90;;
38358;SDS011;42072;48.044;14.416;2023-06-24T03:48:43;3.67;;;2.97;;
38358;SDS011;42072;48.044;14.416;2023-06-24T03:51:10;3.22;;;2.92;;
38358;SDS011;42072;48.044;14.416;2023-06-24T03:53:37;5.47;;;3.10;;
38358;SDS011;42072;48.044;14.416;2023-06-24T03:56:05;3.40;;;3.10;;
38358;SDS011;42072;48.044;14.416;2023-06-24T03:58:32;3.80;;;3.20;;
38358;SDS011;42072;48.044;14.416;2023-06-24T04:01:02;3.42;;;3.13;;
38358;SDS011;42072;48.044;14.416;2023-06-24T04:03:31;3.80;;;3.35;;
38358;SDS011;42072;48.044;14.416;2023-06-24T04:05:58;4.38;;;3.50;;
38358;SDS011;42072;48.044;14.416;2023-06-24T04:08:28;4.15;;;3.30;;
38358;SDS011;42072;48.044;14.416;2023-06-24T04:10:58;3.80;;;3.30;;
38358;SDS011;42072;48.044;14.416;2023-06-24T04:13:29;3.85;;;3.20;;
38358;SDS011;42072;48.044;14.416;2023-06-24T04:16:00;4.30;;;3.25;;
38358;SDS011;42072;48.044;14.416;2023-06-24T04:18:27;4.85;;;3.67;;
38358;SDS011;42072;48.044;14.416;2023-06-24T04:20:54;3.95;;;3.40;;
38358;SDS011;42072;48.044;14.416;2023-06-24T04:23:21;3.55;;;3.00;;
38358;SDS011;42072;48.044;14.416;2023-06-24T04:25:48;4.30;;;3.70;;
38358;SDS011;42072;48.044;14.416;2023-06-24T04:28:16;4.15;;;3.75;;
38358;SDS011;42072;48.044;14.416;2023-06-24T04:30:43;6.10;;;3.78;;
38358;SDS011;42072;48.044;14.416;2023-06-24T04:33:10;3.63;;;3.33;;
38358;SDS011;42072;48.044;14.416;2023-06-24T04:35:37;5.55;;;3.58;;
38358;SDS011;42072;48.044;14.416;2023-06-24T04:38:04;4.50;;;4.10;;
38358;SDS011;42072;48.044;14.416;2023-06-24T04:40:31;6.47;;;4.53;;
38358;SDS011;42072;48.044;14.416;2023-06-24T04:42:58;8.80;;;3.85;;
38358;SDS011;42072;48.044;14.416;2023-06-24T04:45:25;4.68;;;3.85;;
38358;SDS011;42072;48.044;14.416;2023-06-24T04:47:52;5.25;;;3.45;;
38358;SDS011;42072;48.044;14.416;2023-06-24T04:50:19;5.18;;;3.22;;
38358;SDS011;42072;48.044;14.416;2023-06-24T04:52:51;4.20;;;3.30;;
38358;SDS011;42072;48.044;14.416;2023-06-24T04:55:23;3.50;;;3.10;;
38358;SDS011;42072;48.044;14.416;2023-06-24T04:57:50;4.35;;;3.20;;
38358;SDS011;42072;48.044;14.416;2023-06-24T05:00:17;4.63;;;3.13;;
38358;SDS011;42072;48.044;14.416;2023-06-24T05:02:45;3.22;;;2.90;;
38358;SDS011;42072;48.044;14.416;2023-06-24T05:05:12;4.25;;;3.45;;
38358;SDS011;42072;48.044;14.416;2023-06-24T05:07:39;6.55;;;3.72;;
38358;SDS011;42072;48.044;14.416;2023-06-24T05:10:06;6.47;;;3.65;;
38358;SDS011;42072;48.044;14.416;2023-06-24T05:12:33;3.72;;;3.22;;
38358;SDS011;42072;48.044;14.416;2023-06-24T05:15:02;4.20;;;3.30;;
38358;SDS011;42072;48.044;14.416;2023-06-24T05:17:30;4.90;;;3.08;;
38358;SDS011;42072;48.044;14.416;2023-06-24T05:19:57;5.10;;;3.38;;
38358;SDS011;42072;48.044;14.416;2023-06-24T05:22:25;4.93;;;3.25;;
38358;SDS011;42072;48.044;14.416;2023-06-24T05:24:52;4.57;;;3.45;;
38358;SDS011;42072;48.044;14.416;2023-06-24T05:27:19;3.75;;;3.35;;
38358;SDS011;42072;48.044;14.416;2023-06-24T05:29:46;3.92;;;3.50;;
38358;SDS011;42072;48.044;14.416;2023-06-24T05:32:14;4.18;;;3.70;;
38358;SDS011;42072;48.044;14.416;2023-06-24T05:34:43;4.03;;;3.45;;
38358;SDS011;42072;48.044;14.416;2023-06-24T05:37:11;4.57;;;4.13;;
38358;SDS011;42072;48.044;14.416;2023-06-24T05:39:38;4.72;;;4.22;;
38358;SDS011;42072;48.044;14.416;2023-06-24T05:42:05;4.55;;;4.15;;
38358;SDS011;42072;48.044;14.416;2023-06-24T05:44:32;4.97;;;4.47;;
38358;SDS011;42072;48.044;14.416;2023-06-24T05:47:00;4.82;;;4.05;;
38358;SDS011;42072;48.044;14.416;2023-06-24T05:49:27;4.80;;;4.30;;
38358;SDS011;42072;48.044;14.416;2023-06-24T05:51:55;4.72;;;4.22;;
38358;SDS011;42072;48.044;14.416;2023-06-24T05:54:24;5.28;;;4.55;;
38358;SDS011;42072;48.044;14.416;2023-06-24T05:56:51;5.68;;;5.00;;
38358;SDS011;42072;48.044;14.416;2023-06-24T05:59:18;7.75;;;5.07;;
38358;SDS011;42072;48.044;14.416;2023-06-24T06:01:45;7.18;;;4.45;;
38358;SDS011;42072;48.044;14.416;2023-06-24T06:04:14;5.50;;;4.93;;
38358;SDS011;42072;48.044;14.416;2023-06-24T06:06:42;6.57;;;5.38;;
38358;SDS011;42072;48.044;14.416;2023-06-24T06:09:09;5.60;;;4.90;;
38358;SDS011;42072;48.044;14.416;2023-06-24T06:11:36;6.28;;;4.82;;
38358;SDS011;42072;48.044;14.416;2023-06-24T06:14:03;7.10;;;5.00;;
38358;SDS011;42072;48.044;14.416;2023-06-24T06:16:30;5.90;;;5.30;;
38358;SDS011;42072;48.044;14.416;2023-06-24T06:18:57;7.68;;;5.10;;
38358;SDS011;42072;48.044;14.416;2023-06-24T06:21:24;6.35;;;5.47;;
38358;SDS011;42072;48.044;14.416;2023-06-24T06:23:51;6.55;;;5.32;;
38358;SDS011;42072;48.044;14.416;2023-06-24T06:26:19;7.10;;;5.28;;
38358;SDS011;42072;48.044;14.416;2023-06-24T06:28:46;6.68;;;5.40;;
38358;SDS011;42072;48.044;14.416;2023-06-24T06:31:14;7.45;;;5.10;;
38358;SDS011;42072;48.044;14.416;2023-06-24T06:33:43;6.00;;;5.40;;
38358;SDS011;42072;48.044;14.416;2023-06-24T06:36:10;6.88;;;5.18;;
38358;SDS011;42072;48.044;14.416;2023-06-24T06:38:37;9.40;;;6.15;;
38358;SDS011;42072;48.044;14.416;2023-06-24T06:41:04;9.52;;;5.88;;
38358;SDS011;42072;48.044;14.416;2023-06-24T06:43:32;7.28;;;6.25;;
38358;SDS011;42072;48.044;14.416;2023-06-24T06:46:00;7.70;;;5.68;;
38358;SDS011;42072;48.044;14.416;2023-06-24T06:48:27;8.68;;;5.43;;
38358;SDS011;42072;48.044;14.416;2023-06-24T06:50:54;8.77;;;6.32;;
38358;SDS011;42072;48.044;14.416;2023-06-24T06:53:22;8.20;;;6.40;;
38358;SDS011;42072;48.044;14.416;2023-06-24T06:55:49;7.95;;;5.68;;
38358;SDS011;42072;48.044;14.416;2023-06-24T06:58:16;8.95;;;6.45;;
38358;SDS011;42072;48.044;14.416;2023-06-24T07:00:43;7.78;;;5.82;;
38358;SDS011;42072;48.044;14.416;2023-06-24T07:03:11;8.40;;;6.25;;
38358;SDS011;42072;48.044;14.416;2023-06-24T07:05:38;11.07;;;6.28;;
38358;SDS011;42072;48.044;14.416;2023-06-24T07:08:05;9.70;;;6.25;;
38358;SDS011;42072;48.044;14.416;2023-06-24T07:10:33;7.70;;;5.80;;
38358;SDS011;42072;48.044;14.416;2023-06-24T07:13:00;9.30;;;6.63;;
38358;SDS011;42072;48.044;14.416;2023-06-24T07:15:27;7.82;;;6.47;;
38358;SDS011;42072;48.044;14.416;2023-06-24T07:17:55;7.35;;;6.07;;
38358;SDS011;42072;48.044;14.416;2023-06-24T07:20:22;11.13;;;6.47;;
38358;SDS011;42072;48.044;14.416;2023-06-24T07:22:51;8.05;;;6.38;;
38358;SDS011;42072;48.044;14.416;2023-06-24T07:25:18;8.35;;;6.30;;
38358;SDS011;42072;48.044;14.416;2023-06-24T07:27:45;9.00;;;6.38;;
38358;SDS011;42072;48.044;14.416;2023-06-24T07:30:12;6.30;;;5.55;;
38358;SDS011;42072;48.044;14.416;2023-06-24T07:32:39;6.60;;;5.88;;
38358;SDS011;42072;48.044;14.416;2023-06-24T07:35:07;7.43;;;5.70;;
38358;SDS011;42072;48.044;14.416;2023-06-24T07:37:34;5.93;;;4.95;;
38358;SDS011;42072;48.044;14.416;2023-06-24T07:40:02;7.25;;;5.57;;
38358;SDS011;42072;48.044;14.416;2023-06-24T07:42:31;6.10;;;4.80;;
38358;SDS011;42072;48.044;14.416;2023-06-24T07:44:58;6.40;;;5.00;;
38358;SDS011;42072;48.044;14.416;2023-06-24T07:47:25;7.88;;;5.15;;
38358;SDS011;42072;48.044;14.416;2023-06-24T07:49:52;5.22;;;4.72;;
38358;SDS011;42072;48.044;14.416;2023-06-24T07:52:19;5.50;;;4.97;;
38358;SDS011;42072;48.044;14.416;2023-06-24T07:54:47;6.28;;;4.95;;
38358;SDS011;42072;48.044;14.416;2023-06-24T07:57:14;5.35;;;4.40;;
38358;SDS011;42072;48.044;14.416;2023-06-24T07:59:42;6.82;;;4.88;;
38358;SDS011;42072;48.044;14.416;2023-06-24T08:02:09;4.60;;;4.20;;
38358;SDS011;42072;48.044;14.416;2023-06-24T08:04:36;7.20;;;4.35;;
38358;SDS011;42072;48.044;14.416;2023-06-24T08:07:04;6.45;;;4.50;;
38358;SDS011;42072;48.044;14.416;2023-06-24T08:09:31;5.85;;;4.80;;
38358;SDS011;42072;48.044;14.416;2023-06-24T08:11:58;5.70;;;4.45;;
38358;SDS011;42072;48.044;14.416;2023-06-24T08:14:25;6.20;;;4.40;;
38358;SDS011;42072;48.044;14.416;2023-06-24T08:16:53;5.35;;;4.53;;
38358;SDS011;42072;48.044;14.416;2023-06-24T08:19:20;6.13;;;5.03;;
38358;SDS011;42072;48.044;14.416;2023-06-24T08:21:47;7.13;;;4.93;;
38358;SDS011;42072;48.044;14.416;2023-06-24T08:24:14;6.80;;;5.30;;
38358;SDS011;42072;48.044;14.416;2023-06-24T08:26:41;6.28;;;5.22;;
38358;SDS011;42072;48.044;14.416;2023-06-24T08:29:08;7.63;;;5.00;;
38358;SDS011;42072;48.044;14.416;2023-06-24T08:31:35;7.13;;;5.30;;
38358;SDS011;42072;48.044;14.416;2023-06-24T08:34:02;6.25;;;5.20;;
38358;SDS011;42072;48.044;14.416;2023-06-24T08:36:29;5.85;;;4.85;;
38358;SDS011;42072;48.044;14.416;2023-06-24T08:38:56;6.95;;;4.78;;
38358;SDS011;42072;48.044;14.416;2023-06-24T08:41:24;5.93;;;5.15;;
38358;SDS011;42072;48.044;14.416;2023-06-24T08:43:52;5.72;;;5.00;;
38358;SDS011;42072;48.044;14.416;2023-06-24T08:46:23;6.05;;;4.85;;
38358;SDS011;42072;48.044;14.416;2023-06-24T08:48:59;6.30;;;4.32;;
38358;SDS011;42072;48.044;14.416;2023-06-24T08:51:39;6.33;;;4.57;;
38358;SDS011;42072;48.044;14.416;2023-06-24T08:54:09;5.57;;;4.10;;
38358;SDS011;42072;48.044;14.416;2023-06-24T08:56:37;9.50;;;4.63;;
38358;SDS011;42072;48.044;14.416;2023-06-24T08:59:08;6.63;;;4.63;;
38358;SDS011;42072;48.044;14.416;2023-06-24T09:01:35;4.88;;;4.35;;
38358;SDS011;42072;48.044;14.416;2023-06-24T09:04:03;5.60;;;4.10;;
38358;SDS011;42072;48.044;14.416;2023-06-24T09:06:31;6.47;;;4.70;;
38358;SDS011;42072;48.044;14.416;2023-06-24T09:08:58;5.35;;;4.35;;
38358;SDS011;42072;48.044;14.416;2023-06-24T09:11:25;4.95;;;4.38;;
38358;SDS011;42072;48.044;14.416;2023-06-24T09:13:54;5.53;;;4.50;;
38358;SDS011;42072;48.044;14.416;2023-06-24T09:16:25;5.25;;;4.00;;
38358;SDS011;42072;48.044;14.416;2023-06-24T09:18:53;3.95;;;3.50;;
38358;SDS011;42072;48.044;14.416;2023-06-24T09:21:21;5.78;;;4.82;;
38358;SDS011;42072;48.044;14.416;2023-06-24T09:23:54;5.85;;;3.95;;
38358;SDS011;42072;48.044;14.416;2023-06-24T09:26:23;4.70;;;4.20;;
38358;SDS011;42072;48.044;14.416;2023-06-24T09:28:51;5.22;;;4.05;;
38358;SDS011;42072;48.044;14.416;2023-06-24T09:31:19;6.13;;;4.15;;
38358;SDS011;42072;48.044;14.416;2023-06-24T09:33:46;6.43;;;4.53;;
38358;SDS011;42072;48.044;14.416;2023-06-24T09:36:14;4.78;;;4.15;;
38358;SDS011;42072;48.044;14.416;2023-06-24T09:38:42;5.80;;;4.47;;
38358;SDS011;42072;48.044;14.416;2023-06-24T09:41:13;7.45;;;4.93;;
38358;SDS011;42072;48.044;14.416;2023-06-24T09:43:41;6.72;;;4.53;;
38358;SDS011;42072;48.044;14.416;2023-06-24T09:46:12;7.85;;;4.13;;
38358;SDS011;42072;48.044;14.416;2023-06-24T09:48:41;5.93;;;4.40;;
38358;SDS011;42072;48.044;14.416;2023-06-24T09:51:08;8.60;;;4.18;;
38358;SDS011;42072;48.044;14.416;2023-06-24T09:53:38;6.07;;;5.15;;
38358;SDS011;42072;48.044;14.416;2023-06-24T09:56:07;7.40;;;4.57;;
38358;SDS011;42072;48.044;14.416;2023-06-24T09:58:36;5.32;;;4.80;;
38358;SDS011;42072;48.044;14.416;2023-06-24T10:01:06;6.30;;;4.65;;
38358;SDS011;42072;48.044;14.416;2023-06-24T10:03:35;6.25;;;4.72;;
38358;SDS011;42072;48.044;14.416;2023-06-24T10:06:04;7.38;;;4.75;;
38358;SDS011;42072;48.044;14.416;2023-06-24T10:08:32;5.53;;;4.65;;
38358;SDS011;42072;48.044;14.416;2023-06-24T10:11:00;7.65;;;4.97;;
38358;SDS011;42072;48.044;14.416;2023-06-24T10:13:28;8.80;;;5.10;;
38358;SDS011;42072;48.044;14.416;2023-06-24T10:15:56;5.85;;;4.75;;
38358;SDS011;42072;48.044;14.416;2023-06-24T10:20:57;6.88;;;5.00;;
38358;SDS011;42072;48.044;14.416;2023-06-24T10:23:32;8.45;;;5.20;;
38358;SDS011;42072;48.044;14.416;2023-06-24T10:26:20;6.43;;;4.70;;
38358;SDS011;42072;48.044;14.416;2023-06-24T10:36:59;6.88;;;5.13;;
38358;SDS011;42072;48.044;14.416;2023-06-24T10:47:26;6.25;;;5.55;;
38358;SDS011;42072;48.044;14.416;2023-06-24T10:49:54;6.63;;;4.60;;
38358;SDS011;42072;48.044;14.416;2023-06-24T10:52:22;6.00;;;4.85;;
38358;SDS011;42072;48.044;14.416;2023-06-24T10:54:50;6.43;;;5.55;;
38358;SDS011;42072;48.044;14.416;2023-06-24T10:57:23;6.20;;;4.72;;
38358;SDS011;42072;48.044;14.416;2023-06-24T10:59:54;6.80;;;5.10;;
38358;SDS011;42072;48.044;14.416;2023-06-24T11:02:24;8.80;;;5.43;;
38358;SDS011;42072;48.044;14.416;2023-06-24T11:04:53;6.25;;;5.65;;
38358;SDS011;42072;48.044;14.416;2023-06-24T11:07:23;7.28;;;6.00;;
38358;SDS011;42072;48.044;14.416;2023-06-24T11:09:54;6.38;;;5.40;;
38358;SDS011;42072;48.044;14.416;2023-06-24T11:12:23;8.85;;;5.30;;
38358;SDS011;42072;48.044;14.416;2023-06-24T11:14:58;6.00;;;5.20;;
38358;SDS011;42072;48.044;14.416;2023-06-24T11:17:29;6.88;;;5.35;;
38358;SDS011;42072;48.044;14.416;2023-06-24T11:19:57;5.38;;;4.88;;
38358;SDS011;42072;48.044;14.416;2023-06-24T11:22:25;6.82;;;5.68;;
38358;SDS011;42072;48.044;14.416;2023-06-24T11:24:54;7.28;;;5.05;;
38358;SDS011;42072;48.044;14.416;2023-06-24T11:27:28;6.38;;;5.68;;
38358;SDS011;42072;48.044;14.416;2023-06-24T11:30:00;6.55;;;5.38;;
38358;SDS011;42072;48.044;14.416;2023-06-24T11:32:37;6.55;;;4.72;;
38358;SDS011;42072;48.044;14.416;2023-06-24T11:35:07;6.13;;;5.38;;
38358;SDS011;42072;48.044;14.416;2023-06-24T11:37:35;6.75;;;5.10;;
38358;SDS011;42072;48.044;14.416;2023-06-24T11:40:03;7.30;;;5.10;;
38358;SDS011;42072;48.044;14.416;2023-06-24T11:42:35;5.38;;;4.85;;
38358;SDS011;42072;48.044;14.416;2023-06-24T11:45:04;5.50;;;4.47;;
38358;SDS011;42072;48.044;14.416;2023-06-24T11:47:41;6.68;;;4.50;;
38358;SDS011;42072;48.044;14.416;2023-06-24T11:50:09;6.22;;;4.53;;
38358;SDS011;42072;48.044;14.416;2023-06-24T11:52:46;6.00;;;4.47;;
38358;SDS011;42072;48.044;14.416;2023-06-24T11:55:19;6.47;;;4.78;;
38358;SDS011;42072;48.044;14.416;2023-06-24T11:58:02;5.55;;;4.55;;
38358;SDS011;42072;48.044;14.416;2023-06-24T12:00:38;5.13;;;4.63;;
38358;SDS011;42072;48.044;14.416;2023-06-24T12:03:11;5.68;;;4.35;;
38358;SDS011;42072;48.044;14.416;2023-06-24T12:05:39;5.68;;;4.50;;
38358;SDS011;42072;48.044;14.416;2023-06-24T12:08:12;5.90;;;4.90;;
38358;SDS011;42072;48.044;14.416;2023-06-24T12:10:43;6.25;;;4.80;;
38358;SDS011;42072;48.044;14.416;2023-06-24T12:13:11;5.70;;;4.93;;
38358;SDS011;42072;48.044;14.416;2023-06-24T12:15:39;7.93;;;5.18;;
38358;SDS011;42072;48.044;14.416;2023-06-24T12:18:07;5.65;;;4.70;;
38358;SDS011;42072;48.044;14.416;2023-06-24T12:20:35;5.70;;;4.70;;
38358;SDS011;42072;48.044;14.416;2023-06-24T12:23:04;6.65;;;5.28;;
38358;SDS011;42072;48.044;14.416;2023-06-24T12:25:33;5.25;;;4.75;;
38358;SDS011;42072;48.044;14.416;2023-06-24T12:28:00;6.00;;;4.45;;
38358;SDS011;42072;48.044;14.416;2023-06-24T12:30:27;6.18;;;4.78;;
38358;SDS011;42072;48.044;14.416;2023-06-24T12:32:55;5.78;;;4.65;;
38358;SDS011;42072;48.044;14.416;2023-06-24T12:35:22;5.65;;;4.68;;
38358;SDS011;42072;48.044;14.416;2023-06-24T12:37:53;6.32;;;4.22;;
38358;SDS011;42072;48.044;14.416;2023-06-24T12:40:21;6.93;;;4.95;;
38358;SDS011;42072;48.044;14.416;2023-06-24T12:42:48;5.10;;;4.60;;
38358;SDS011;42072;48.044;14.416;2023-06-24T12:45:15;5.63;;;4.78;;
38358;SDS011;42072;48.044;14.416;2023-06-24T12:47:42;7.82;;;5.10;;
38358;SDS011;42072;48.044;14.416;2023-06-24T12:50:09;10.27;;;5.03;;
38358;SDS011;42072;48.044;14.416;2023-06-24T12:52:36;5.93;;;4.63;;
38358;SDS011;42072;48.044;14.416;2023-06-24T12:55:06;4.72;;;4.00;;
38358;SDS011;42072;48.044;14.416;2023-06-24T12:57:34;6.78;;;4.85;;
38358;SDS011;42072;48.044;14.416;2023-06-24T13:00:02;7.05;;;5.32;;
38358;SDS011;42072;48.044;14.416;2023-06-24T13:02:32;6.07;;;5.15;;
38358;SDS011;42072;48.044;14.416;2023-06-24T13:04:59;5.53;;;4.35;;
38358;SDS011;42072;48.044;14.416;2023-06-24T13:07:27;5.85;;;4.47;;
38358;SDS011;42072;48.044;14.416;2023-06-24T13:09:54;6.07;;;4.65;;
38358;SDS011;42072;48.044;14.416;2023-06-24T13:12:21;5.80;;;4.30;;
38358;SDS011;42072;48.044;14.416;2023-06-24T13:14:48;6.18;;;4.45;;
38358;SDS011;42072;48.044;14.416;2023-06-24T13:17:16;4.72;;;4.20;;
38358;SDS011;42072;48.044;14.416;2023-06-24T13:19:43;4.85;;;3.92;;
38358;SDS011;42072;48.044;14.416;2023-06-24T13:22:10;5.25;;;4.10;;
38358;SDS011;42072;48.044;14.416;2023-06-24T13:24:37;5.15;;;4.28;;
38358;SDS011;42072;48.044;14.416;2023-06-24T13:27:04;4.70;;;3.95;;
38358;SDS011;42072;48.044;14.416;2023-06-24T13:29:32;5.10;;;3.92;;
38358;SDS011;42072;48.044;14.416;2023-06-24T13:32:00;4.72;;;3.83;;
38358;SDS011;42072;48.044;14.416;2023-06-24T13:34:27;4.10;;;3.70;;
38358;SDS011;42072;48.044;14.416;2023-06-24T13:36:54;5.28;;;3.70;;
38358;SDS011;42072;48.044;14.416;2023-06-24T13:39:21;4.80;;;3.42;;
38358;SDS011;42072;48.044;14.416;2023-06-24T13:41:51;4.10;;;3.70;;
38358;SDS011;42072;48.044;14.416;2023-06-24T13:44:21;4.00;;;3.47;;
38358;SDS011;42072;48.044;14.416;2023-06-24T13:46:48;7.22;;;3.83;;
38358;SDS011;42072;48.044;14.416;2023-06-24T13:49:16;3.83;;;3.38;;
38358;SDS011;42072;48.044;14.416;2023-06-24T13:51:43;3.80;;;3.30;;
38358;SDS011;42072;48.044;14.416;2023-06-24T13:54:11;4.25;;;3.30;;
38358;SDS011;42072;48.044;14.416;2023-06-24T13:56:38;4.45;;;3.47;;
38358;SDS011;42072;48.044;14.416;2023-06-24T13:59:05;4.80;;;3.50;;
38358;SDS011;42072;48.044;14.416;2023-06-24T14:01:32;4.38;;;3.88;;
38358;SDS011;42072;48.044;14.416;2023-06-24T14:03:59;3.53;;;3.13;;
38358;SDS011;42072;48.044;14.416;2023-06-24T14:06:26;4.43;;;3.80;;
38358;SDS011;42072;48.044;14.416;2023-06-24T14:08:54;5.05;;;3.60;;
38358;SDS011;42072;48.044;14.416;2023-06-24T14:11:21;7.10;;;4.35;;
38358;SDS011;42072;48.044;14.416;2023-06-24T14:13:48;31.15;;;20.48;;
38358;SDS011;42072;48.044;14.416;2023-06-24T14:16:15;6.82;;;4.43;;
38358;SDS011;42072;48.044;14.416;2023-06-24T14:18:43;4.75;;;3.38;;
38358;SDS011;42072;48.044;14.416;2023-06-24T14:21:10;5.65;;;3.50;;
38358;SDS011;42072;48.044;14.416;2023-06-24T14:23:37;4.80;;;3.83;;
38358;SDS011;42072;48.044;14.416;2023-06-24T14:26:06;3.58;;;3.28;;
38358;SDS011;42072;48.044;14.416;2023-06-24T14:28:33;4.15;;;3.75;;
38358;SDS011;42072;48.044;14.416;2023-06-24T14:31:00;5.78;;;4.28;;
38358;SDS011;42072;48.044;14.416;2023-06-24T14:33:27;4.40;;;3.40;;
38358;SDS011;42072;48.044;14.416;2023-06-24T14:35:55;6.22;;;3.25;;
38358;SDS011;42072;48.044;14.416;2023-06-24T14:38:22;3.70;;;3.40;;
38358;SDS011;42072;48.044;14.416;2023-06-24T14:40:49;5.55;;;3.45;;
38358;SDS011;42072;48.044;14.416;2023-06-24T14:43:17;4.90;;;3.40;;
38358;SDS011;42072;48.044;14.416;2023-06-24T14:45:45;4.57;;;3.65;;
38358;SDS011;42072;48.044;14.416;2023-06-24T14:48:12;7.00;;;4.10;;
38358;SDS011;42072;48.044;14.416;2023-06-24T14:50:39;5.07;;;3.90;;
38358;SDS011;42072;48.044;14.416;2023-06-24T14:53:06;4.15;;;3.38;;
38358;SDS011;42072;48.044;14.416;2023-06-24T14:55:34;5.25;;;4.35;;
38358;SDS011;42072;48.044;14.416;2023-06-24T14:58:01;5.03;;;4.07;;
38358;SDS011;42072;48.044;14.416;2023-06-24T15:00:28;5.38;;;3.70;;
38358;SDS011;42072;48.044;14.416;2023-06-24T15:02:55;4.88;;;4.20;;
38358;SDS011;42072;48.044;14.416;2023-06-24T15:05:23;4.40;;;3.97;;
38358;SDS011;42072;48.044;14.416;2023-06-24T15:07:51;4.30;;;3.90;;
38358;SDS011;42072;48.044;14.416;2023-06-24T15:10:19;4.90;;;3.80;;
38358;SDS011;42072;48.044;14.416;2023-06-24T15:12:46;4.20;;;3.80;;